createdAt,value
2018-05-31T00:01:52.622Z,81.09
2018-05-31T00:02:52.631Z,81.19
2018-05-31T00:04:45.550Z,81.15
2018-05-31T00:05:45.570Z,81.09
2018-05-31T00:07:39.508Z,81.44
2018-05-31T00:08:39.519Z,81.63
2018-05-31T00:10:32.436Z,81.92
2018-05-31T00:11:32.464Z,82.11
2018-05-31T00:13:25.402Z,81.92
2018-05-31T00:14:25.409Z,82.11
2018-05-31T00:16:18.348Z,82.21
2018-05-31T00:17:18.358Z,82.17
2018-05-31T00:19:11.282Z,82.79
2018-05-31T00:20:11.310Z,81.98
2018-05-31T00:22:04.254Z,82.60
2018-05-31T00:23:04.255Z,82.75
2018-05-31T00:24:57.178Z,82.94
2018-05-31T00:25:57.204Z,82.84
2018-05-31T00:27:50.149Z,83.33
2018-05-31T00:28:50.152Z,83.23
2018-05-31T00:30:43.085Z,83.33
2018-05-31T00:31:43.098Z,83.27
2018-05-31T00:33:36.046Z,82.98
2018-05-31T00:34:36.051Z,83.27
2018-05-31T00:36:28.997Z,82.60
2018-05-31T00:37:28.999Z,82.89
2018-05-31T00:39:21.919Z,82.89
2018-05-31T00:40:21.945Z,82.50
2018-05-31T00:42:14.893Z,82.79
2018-05-31T00:43:14.893Z,82.60
2018-05-31T00:45:07.818Z,82.65
2018-05-31T00:46:07.843Z,82.75
2018-05-31T00:48:00.789Z,82.65
2018-05-31T00:49:00.790Z,82.56
2018-05-31T00:50:53.710Z,83.14
2018-05-31T00:51:53.740Z,83.33
2018-05-31T00:53:46.682Z,84.10
2018-05-31T00:54:46.687Z,83.81
2018-05-31T00:56:39.636Z,84.10
2018-05-31T00:57:39.649Z,84.10
2018-05-31T00:59:32.589Z,84.20
2018-05-31T01:00:32.591Z,84.16
2018-05-31T01:02:26.565Z,84.58
2018-05-31T01:03:26.575Z,84.30
2018-05-31T01:05:19.522Z,83.91
2018-05-31T01:06:19.527Z,83.42
2018-05-31T01:08:12.474Z,83.91
2018-05-31T01:09:12.481Z,84.00
2018-05-31T01:11:05.400Z,84.48
2018-05-31T01:12:05.430Z,84.48
2018-05-31T01:13:58.367Z,85.02
2018-05-31T01:14:58.376Z,85.22
2018-05-31T01:16:51.315Z,85.60
2018-05-31T01:17:51.325Z,85.99
2018-05-31T01:19:44.243Z,85.70
2018-05-31T01:20:44.272Z,86.38
2018-05-31T01:22:37.217Z,86.33
2018-05-31T01:23:37.263Z,87.01
2018-05-31T01:25:30.137Z,87.10
2018-05-31T01:26:30.167Z,86.82
2018-05-31T01:28:23.103Z,86.91
2018-05-31T01:29:23.115Z,86.52
2018-05-31T01:31:16.035Z,86.28
2018-05-31T01:32:16.064Z,86.14
2018-05-31T01:34:09.003Z,86.18
2018-05-31T01:35:09.009Z,85.85
2018-05-31T01:37:01.949Z,85.99
2018-05-31T01:38:01.958Z,85.94
2018-05-31T01:39:54.881Z,85.66
2018-05-31T01:40:54.906Z,85.46
2018-05-31T01:42:47.863Z,85.56
2018-05-31T01:43:47.862Z,85.70
2018-05-31T01:45:40.786Z,85.75
2018-05-31T01:46:40.810Z,85.85
2018-05-31T01:48:33.757Z,85.66
2018-05-31T01:49:33.757Z,85.41
2018-05-31T01:51:26.681Z,85.31
2018-05-31T01:52:26.708Z,85.41
2018-05-31T01:54:19.657Z,85.70
2018-05-31T01:55:19.662Z,85.22
2018-05-31T01:57:12.609Z,85.12
2018-05-31T01:58:12.616Z,85.02
2018-05-31T02:00:05.590Z,84.74
2018-05-31T02:01:05.568Z,84.93
2018-05-31T02:02:58.514Z,84.64
2018-05-31T02:03:58.526Z,84.83
2018-05-31T02:05:51.450Z,85.02
2018-05-31T02:06:51.478Z,84.74
2018-05-31T02:08:44.922Z,84.83
2018-05-31T02:09:44.918Z,84.93
2018-05-31T02:11:37.837Z,84.93
2018-05-31T02:12:37.865Z,84.93
2018-05-31T02:14:30.800Z,85.02
2018-05-31T02:15:30.810Z,85.02
2018-05-31T02:17:23.749Z,85.02
2018-05-31T02:18:23.755Z,84.93
2018-05-31T02:20:16.677Z,84.93
2018-05-31T02:21:16.703Z,85.02
2018-05-31T02:23:09.654Z,84.83
2018-05-31T02:24:09.660Z,84.93
2018-05-31T02:26:02.583Z,84.83
2018-05-31T02:27:02.613Z,84.64
2018-05-31T02:28:55.556Z,84.93
2018-05-31T02:29:55.558Z,85.22
2018-05-31T02:31:48.484Z,85.22
2018-05-31T02:32:48.505Z,84.98
2018-05-31T02:34:41.446Z,84.98
2018-05-31T02:35:41.456Z,84.98
2018-05-31T02:37:34.884Z,85.17
2018-05-31T02:38:34.895Z,85.37
2018-05-31T02:40:27.834Z,84.89
2018-05-31T02:41:27.847Z,85.02
2018-05-31T02:43:20.785Z,84.89
2018-05-31T02:44:20.799Z,84.74
2018-05-31T02:46:13.757Z,84.98
2018-05-31T02:47:13.746Z,84.98
2018-05-31T02:49:06.687Z,84.50
2018-05-31T02:50:06.693Z,84.69
2018-05-31T02:51:59.618Z,84.59
2018-05-31T02:52:59.645Z,84.69
2018-05-31T02:54:52.593Z,84.98
2018-05-31T02:55:52.603Z,84.79
2018-05-31T02:57:45.550Z,84.69
2018-05-31T02:58:45.553Z,84.98
2018-05-31T03:00:38.470Z,84.98
2018-05-31T03:01:38.498Z,84.41
2018-05-31T03:03:31.445Z,84.79
2018-05-31T03:04:31.450Z,84.79
2018-05-31T03:06:24.371Z,84.69
2018-05-31T03:07:24.397Z,85.37
2018-05-31T03:09:17.336Z,85.27
2018-05-31T03:10:17.345Z,85.66
2018-05-31T03:12:10.264Z,85.66
2018-05-31T03:13:10.293Z,85.56
2018-05-31T03:15:03.231Z,85.56
2018-05-31T03:16:03.241Z,85.56
2018-05-31T03:17:56.189Z,85.75
2018-05-31T03:18:56.191Z,85.37
2018-05-31T03:20:49.109Z,85.66
2018-05-31T03:21:49.136Z,85.56
2018-05-31T03:23:42.572Z,85.13
2018-05-31T03:24:42.582Z,85.71
2018-05-31T03:26:35.503Z,85.94
2018-05-31T03:27:35.532Z,84.98
2018-05-31T03:29:29.466Z,85.37
2018-05-31T03:30:29.541Z,85.75
2018-05-31T03:32:22.477Z,85.27
2018-05-31T03:33:22.505Z,85.17
2018-05-31T03:35:15.442Z,85.75
2018-05-31T03:36:15.455Z,85.37
2018-05-31T03:38:08.931Z,85.08
2018-05-31T03:39:08.893Z,85.46
2018-05-31T03:41:01.812Z,85.46
2018-05-31T03:42:01.838Z,85.37
2018-05-31T03:43:54.776Z,85.56
2018-05-31T03:44:54.784Z,85.85
2018-05-31T03:46:47.714Z,85.27
2018-05-31T03:47:47.731Z,85.17
2018-05-31T03:49:40.673Z,85.22
2018-05-31T03:50:40.680Z,84.93
2018-05-31T03:52:33.603Z,83.72
2018-05-31T03:53:33.633Z,83.42
2018-05-31T03:55:26.577Z,83.18
2018-05-31T03:56:26.584Z,82.11
2018-05-31T03:58:19.532Z,80.22
2018-05-31T03:59:19.540Z,79.83
2018-05-31T04:01:12.468Z,78.42
2018-05-31T04:02:12.496Z,77.94
2018-05-31T04:04:05.444Z,77.01
2018-05-31T04:05:05.450Z,76.91
2018-05-31T04:06:58.381Z,76.08
2018-05-31T04:07:58.408Z,75.89
2018-05-31T04:09:51.355Z,75.24
2018-05-31T04:10:51.360Z,74.57
2018-05-31T04:12:44.786Z,73.93
2018-05-31T04:13:44.816Z,73.05
2018-05-31T04:15:37.762Z,72.86
2018-05-31T04:16:37.768Z,72.67
2018-05-31T04:18:30.728Z,72.31
2018-05-31T04:19:30.737Z,71.34
2018-05-31T04:21:23.660Z,71.83
2018-05-31T04:22:23.688Z,71.15
2018-05-31T04:24:16.637Z,70.67
2018-05-31T04:25:16.644Z,70.61
2018-05-31T04:27:09.569Z,70.70
2018-05-31T04:28:09.598Z,69.83
2018-05-31T04:30:02.542Z,69.28
2018-05-31T04:31:02.553Z,68.25
2018-05-31T04:32:55.483Z,67.47
2018-05-31T04:33:55.513Z,67.08
2018-05-31T04:35:48.463Z,66.24
2018-05-31T04:36:48.470Z,66.53
2018-05-31T04:38:41.419Z,65.30
2018-05-31T04:39:41.430Z,65.20
2018-05-31T04:41:34.362Z,65.33
2018-05-31T04:42:34.451Z,64.75
2018-05-31T04:44:27.344Z,63.29
2018-05-31T04:45:27.354Z,64.00
2018-05-31T04:47:20.286Z,61.70
2018-05-31T04:48:20.314Z,61.51
2018-05-31T04:50:13.265Z,60.95
2018-05-31T04:51:13.273Z,60.95
2018-05-31T04:53:06.207Z,60.49
2018-05-31T04:54:06.241Z,60.30
2018-05-31T04:55:59.186Z,58.87
2018-05-31T04:56:59.198Z,58.67
2018-05-31T04:58:52.151Z,58.87
2018-05-31T04:59:52.165Z,57.99
2018-05-31T05:01:45.121Z,57.63
2018-05-31T05:02:45.127Z,56.97
2018-05-31T05:04:38.086Z,55.22
2018-05-31T05:05:38.098Z,55.77
2018-05-31T05:07:31.035Z,56.10
2018-05-31T05:08:31.069Z,55.71
2018-05-31T05:10:24.023Z,55.71
2018-05-31T05:11:24.041Z,54.95
2018-05-31T05:13:16.973Z,54.36
2018-05-31T05:14:17.004Z,54.10
2018-05-31T05:16:09.960Z,54.13
2018-05-31T05:17:09.970Z,52.56
2018-05-31T05:19:02.923Z,52.47
2018-05-31T05:20:02.935Z,51.90
2018-05-31T05:21:55.871Z,51.71
2018-05-31T05:22:55.905Z,51.90
2018-05-31T05:24:48.860Z,50.54
2018-05-31T05:25:48.873Z,50.71
2018-05-31T05:27:41.815Z,52.37
2018-05-31T05:28:41.847Z,52.64
2018-05-31T05:30:34.804Z,52.95
2018-05-31T05:31:34.817Z,51.68
2018-05-31T05:33:27.757Z,51.71
2018-05-31T05:34:27.792Z,51.32
2018-05-31T05:36:20.749Z,51.81
2018-05-31T05:37:20.780Z,51.98
2018-05-31T05:39:13.725Z,52.76
2018-05-31T05:40:13.738Z,52.66
2018-05-31T05:42:06.677Z,52.25
2018-05-31T05:43:06.710Z,52.66
2018-05-31T05:44:59.667Z,52.76
2018-05-31T05:45:59.684Z,51.39
2018-05-31T05:47:53.116Z,52.00
2018-05-31T05:48:53.151Z,51.42
2018-05-31T05:50:46.106Z,51.05
2018-05-31T05:51:46.126Z,50.85
2018-05-31T05:53:39.061Z,50.63
2018-05-31T05:54:46.223Z,50.46
2018-05-31T05:56:32.104Z,50.76
2018-05-31T05:57:32.074Z,50.20
2018-05-31T05:59:25.029Z,49.48
2018-05-31T06:00:25.047Z,49.58
2018-05-31T06:02:17.987Z,50.54
2018-05-31T06:03:18.021Z,51.49
2018-05-31T06:05:10.980Z,50.73
2018-05-31T06:06:10.996Z,50.44
2018-05-31T06:08:03.933Z,50.95
2018-05-31T06:09:03.973Z,50.17
2018-05-31T06:10:56.932Z,49.90
2018-05-31T06:11:56.952Z,49.60
2018-05-31T06:13:49.891Z,49.92
2018-05-31T06:14:49.928Z,48.36
2018-05-31T06:16:42.890Z,47.28
2018-05-31T06:17:42.909Z,47.87
2018-05-31T06:19:35.867Z,48.46
2018-05-31T06:20:35.885Z,48.16
2018-05-31T06:22:28.827Z,47.47
2018-05-31T06:23:28.864Z,47.77
2018-05-31T06:25:21.823Z,47.79
2018-05-31T06:26:21.902Z,47.11
2018-05-31T06:28:14.783Z,47.47
2018-05-31T06:29:14.820Z,47.20
2018-05-31T06:31:07.779Z,47.11
2018-05-31T06:32:07.797Z,46.84
2018-05-31T06:34:00.745Z,46.13
2018-05-31T06:35:00.782Z,46.13
2018-05-31T06:36:53.746Z,46.23
2018-05-31T06:37:53.768Z,46.91
2018-05-31T06:39:46.731Z,47.30
2018-05-31T06:40:46.750Z,47.38
2018-05-31T06:42:39.693Z,46.33
2018-05-31T06:43:39.735Z,46.62
2018-05-31T06:45:32.698Z,46.72
2018-05-31T06:46:32.719Z,46.91
2018-05-31T06:48:25.660Z,47.28
2018-05-31T06:49:25.739Z,47.57
2018-05-31T06:51:19.153Z,47.28
2018-05-31T06:52:19.177Z,47.69
2018-05-31T06:54:12.120Z,47.38
2018-05-31T06:55:12.158Z,47.38
2018-05-31T06:57:05.125Z,47.50
2018-05-31T06:58:05.144Z,47.97
2018-05-31T06:59:58.107Z,47.50
2018-05-31T07:00:58.127Z,48.09
2018-05-31T07:02:51.095Z,46.81
2018-05-31T07:03:51.139Z,46.72
2018-05-31T07:05:44.100Z,46.62
2018-05-31T07:06:44.120Z,46.52
2018-05-31T07:08:37.109Z,45.76
2018-05-31T07:09:37.147Z,45.17
2018-05-31T07:11:30.699Z,45.49
2018-05-31T07:12:30.711Z,45.19
2018-05-31T07:14:23.732Z,46.47
2018-05-31T07:15:23.773Z,45.95
2018-05-31T07:17:16.804Z,45.29
2018-05-31T07:18:16.825Z,45.29
2018-05-31T07:20:09.859Z,45.76
2018-05-31T07:21:09.881Z,45.27
2018-05-31T07:23:02.896Z,46.03
2018-05-31T07:24:02.936Z,46.20
2018-05-31T07:25:56.019Z,47.36
2018-05-31T07:26:55.989Z,48.04
2018-05-31T07:28:49.009Z,47.75
2018-05-31T07:29:49.047Z,49.02
2018-05-31T07:31:43.112Z,49.29
2018-05-31T07:32:43.125Z,50.17
2018-05-31T07:34:36.148Z,48.02
2018-05-31T07:35:36.184Z,49.09
2018-05-31T07:37:29.219Z,49.97
2018-05-31T07:38:29.236Z,49.09
2018-05-31T07:40:22.278Z,49.87
2018-05-31T07:41:22.298Z,49.09
2018-05-31T07:43:15.327Z,49.68
2018-05-31T07:44:15.368Z,49.38
2018-05-31T07:46:08.395Z,49.16
2018-05-31T07:47:08.404Z,49.46
2018-05-31T07:49:01.430Z,48.68
2018-05-31T07:50:01.465Z,49.16
2018-05-31T07:51:54.503Z,49.04
2018-05-31T07:52:54.516Z,50.02
2018-05-31T07:54:47.540Z,50.71
2018-05-31T07:55:47.574Z,50.42
2018-05-31T07:57:40.611Z,49.82
2018-05-31T07:58:40.627Z,51.51
2018-05-31T08:00:33.668Z,51.03
2018-05-31T08:01:33.682Z,49.75
2018-05-31T08:03:26.705Z,49.26
2018-05-31T08:04:26.741Z,49.16
2018-05-31T08:06:19.780Z,50.42
2018-05-31T08:07:19.798Z,50.02
2018-05-31T08:09:12.820Z,51.46
2018-05-31T08:10:12.850Z,51.46
2018-05-31T08:12:05.891Z,51.86
2018-05-31T08:13:05.906Z,51.49
2018-05-31T08:14:58.933Z,50.49
2018-05-31T08:15:58.966Z,50.02
2018-05-31T08:17:52.519Z,50.02
2018-05-31T08:18:52.532Z,50.61
2018-05-31T08:20:45.633Z,49.46
2018-05-31T08:21:45.591Z,49.04
2018-05-31T08:23:38.622Z,49.55
2018-05-31T08:24:38.654Z,49.07
2018-05-31T08:26:56.317Z,50.27
2018-05-31T08:27:46.305Z,48.99
2018-05-31T08:29:32.114Z,47.41
2018-05-31T08:30:32.143Z,47.33
2018-05-31T08:32:25.098Z,47.50
2018-05-31T08:33:25.110Z,47.41
2018-05-31T08:35:18.043Z,46.82
2018-05-31T08:36:18.081Z,47.53
2018-05-31T08:38:11.029Z,47.63
2018-05-31T08:39:11.039Z,49.29
2018-05-31T08:41:03.994Z,45.86
2018-05-31T08:42:04.003Z,45.86
2018-05-31T08:43:56.932Z,47.63
2018-05-31T08:44:56.967Z,45.76
2018-05-31T08:46:49.969Z,46.45
2018-05-31T08:47:49.925Z,45.57
2018-05-31T08:49:42.865Z,47.04
2018-05-31T08:50:42.891Z,46.18
2018-05-31T08:52:35.839Z,45.45
2018-05-31T08:53:35.888Z,44.96
2018-05-31T08:55:28.783Z,45.26
2018-05-31T08:56:29.045Z,44.87
2018-05-31T08:58:21.769Z,44.35
2018-05-31T08:59:21.779Z,44.74
2018-05-31T09:01:14.731Z,45.43
2018-05-31T09:02:14.742Z,44.65
2018-05-31T09:04:07.674Z,46.50
2018-05-31T09:05:07.703Z,46.62
2018-05-31T09:07:00.659Z,44.77
2018-05-31T09:08:00.669Z,44.57
2018-05-31T09:09:53.750Z,44.48
2018-05-31T09:10:53.781Z,44.65
2018-05-31T09:12:46.735Z,45.06
2018-05-31T09:13:46.747Z,44.96
2018-05-31T09:15:39.695Z,44.87
2018-05-31T09:16:39.707Z,45.26
2018-05-31T09:18:32.663Z,45.45
2018-05-31T09:19:32.674Z,45.26
2018-05-31T09:21:25.683Z,45.16
2018-05-31T09:22:25.634Z,45.53
2018-05-31T09:24:18.570Z,45.16
2018-05-31T09:25:18.596Z,45.65
2018-05-31T09:27:11.587Z,44.89
2018-05-31T09:28:11.650Z,44.01
2018-05-31T09:30:05.165Z,44.23
2018-05-31T09:31:05.166Z,42.83
2018-05-31T09:32:58.127Z,43.32
2018-05-31T09:33:58.137Z,44.20
2018-05-31T09:35:51.088Z,43.32
2018-05-31T09:36:51.101Z,44.01
2018-05-31T09:38:44.053Z,45.08
2018-05-31T09:39:44.057Z,43.52
2018-05-31T09:41:37.003Z,42.74
2018-05-31T09:42:37.021Z,43.34
2018-05-31T09:44:29.976Z,42.66
2018-05-31T09:45:29.986Z,43.15
2018-05-31T09:47:23.927Z,42.66
2018-05-31T09:48:23.939Z,42.66
2018-05-31T09:50:17.102Z,42.27
2018-05-31T09:51:17.114Z,42.56
2018-05-31T09:53:10.086Z,43.15
2018-05-31T09:54:10.080Z,43.24
2018-05-31T09:56:03.008Z,43.44
2018-05-31T09:57:03.041Z,43.93
2018-05-31T09:58:56.012Z,41.97
2018-05-31T09:59:56.004Z,42.66
2018-05-31T10:01:48.943Z,42.17
2018-05-31T10:02:48.965Z,42.85
2018-05-31T10:04:41.918Z,42.46
2018-05-31T10:05:41.928Z,43.24
2018-05-31T10:07:35.381Z,43.52
2018-05-31T10:08:35.439Z,43.42
2018-05-31T10:10:28.312Z,44.20
2018-05-31T10:11:28.345Z,43.81
2018-05-31T10:13:21.300Z,44.49
2018-05-31T10:14:21.316Z,44.30
2018-05-31T10:16:14.263Z,43.52
2018-05-31T10:17:14.271Z,44.10
2018-05-31T10:19:07.228Z,43.62
2018-05-31T10:20:07.253Z,44.62
2018-05-31T10:22:00.178Z,44.03
2018-05-31T10:23:00.212Z,43.84
2018-05-31T10:24:53.161Z,42.66
2018-05-31T10:25:53.172Z,42.17
2018-05-31T10:27:46.130Z,41.99
2018-05-31T10:28:46.137Z,42.36
2018-05-31T10:30:39.069Z,42.36
2018-05-31T10:31:39.103Z,43.17
2018-05-31T10:33:32.057Z,43.56
2018-05-31T10:34:32.066Z,44.07
2018-05-31T10:36:24.996Z,43.48
2018-05-31T10:37:25.030Z,43.90
2018-05-31T10:39:17.985Z,41.94
2018-05-31T10:40:17.996Z,40.66
2018-05-31T10:42:11.921Z,42.41
2018-05-31T10:43:11.954Z,42.31
2018-05-31T10:45:04.924Z,42.11
2018-05-31T10:46:04.948Z,42.48
2018-05-31T10:47:57.872Z,42.78
2018-05-31T10:48:57.920Z,43.76
2018-05-31T10:50:50.890Z,45.15
2018-05-31T10:51:50.879Z,44.17
2018-05-31T10:53:43.847Z,42.21
2018-05-31T10:54:50.965Z,40.64
2018-05-31T10:56:43.910Z,40.84
2018-05-31T10:57:43.947Z,40.94
2018-05-31T10:59:29.770Z,41.82
2018-05-31T11:00:29.783Z,42.02
2018-05-31T11:02:22.714Z,40.74
2018-05-31T11:03:22.748Z,41.13
2018-05-31T11:05:15.703Z,39.66
2018-05-31T11:06:15.713Z,39.66
2018-05-31T11:08:08.645Z,40.94
2018-05-31T11:09:08.677Z,41.42
2018-05-31T11:11:01.632Z,40.64
2018-05-31T11:12:01.649Z,40.66
2018-05-31T11:13:54.580Z,40.55
2018-05-31T11:14:54.648Z,40.95
2018-05-31T11:16:47.563Z,41.74
2018-05-31T11:17:47.579Z,42.55
2018-05-31T11:19:40.536Z,42.74
2018-05-31T11:20:40.546Z,42.74
2018-05-31T11:22:33.530Z,42.65
2018-05-31T11:23:33.516Z,43.23
2018-05-31T11:25:26.467Z,42.37
2018-05-31T11:26:26.484Z,42.47
2018-05-31T11:28:19.412Z,39.03
2018-05-31T11:29:19.504Z,39.72
2018-05-31T11:31:12.404Z,40.90
2018-05-31T11:32:12.418Z,39.92
2018-05-31T11:34:05.394Z,42.37
2018-05-31T11:35:05.391Z,41.68
2018-05-31T11:36:58.345Z,42.27
2018-05-31T11:37:58.355Z,40.68
2018-05-31T11:39:51.291Z,40.88
2018-05-31T11:40:51.331Z,40.70
2018-05-31T11:42:47.862Z,39.92
2018-05-31T11:43:44.293Z,38.84
2018-05-31T11:45:37.229Z,40.01
2018-05-31T11:46:37.263Z,38.74
2018-05-31T11:48:30.219Z,37.35
2018-05-31T11:49:30.231Z,38.51
2018-05-31T11:51:24.256Z,39.78
2018-05-31T11:52:23.214Z,39.09
2018-05-31T11:54:16.145Z,38.43
2018-05-31T11:55:16.180Z,39.80
2018-05-31T11:57:09.134Z,39.39
2018-05-31T11:58:09.147Z,39.09
2018-05-31T12:00:02.089Z,38.31
2018-05-31T12:01:02.123Z,39.17
2018-05-31T12:02:55.071Z,41.25
2018-05-31T12:03:55.083Z,40.86
2018-05-31T12:05:49.204Z,41.05
2018-05-31T12:06:49.224Z,40.95
2018-05-31T12:08:42.180Z,39.41
2018-05-31T12:09:42.192Z,38.82
2018-05-31T12:11:35.121Z,38.23
2018-05-31T12:12:35.178Z,38.04
2018-05-31T12:14:28.110Z,39.90
2018-05-31T12:15:28.120Z,39.22
2018-05-31T12:17:21.127Z,39.61
2018-05-31T12:18:21.285Z,39.22
2018-05-31T12:20:14.022Z,37.76
2018-05-31T12:21:14.055Z,38.82
2018-05-31T12:23:07.012Z,38.62
2018-05-31T12:24:07.039Z,38.43
2018-05-31T12:25:59.954Z,39.61
2018-05-31T12:27:00.027Z,39.61
2018-05-31T12:28:52.999Z,39.31
2018-05-31T12:29:52.968Z,40.68
2018-05-31T12:31:45.903Z,41.00
2018-05-31T12:32:45.934Z,40.41
2018-05-31T12:34:38.892Z,42.18
2018-05-31T12:35:38.903Z,40.70
2018-05-31T12:37:31.865Z,41.00
2018-05-31T12:38:31.872Z,40.90
2018-05-31T12:40:24.808Z,40.80
2018-05-31T12:41:24.842Z,40.80
2018-05-31T12:43:17.796Z,41.96
2018-05-31T12:44:17.808Z,41.56
2018-05-31T12:46:10.987Z,40.88
2018-05-31T12:47:10.984Z,40.29
2018-05-31T12:49:03.950Z,40.00
2018-05-31T12:50:03.960Z,40.11
2018-05-31T12:51:56.895Z,40.70
2018-05-31T12:52:56.926Z,40.90
2018-05-31T12:54:49.893Z,40.80
2018-05-31T12:55:49.907Z,42.08
2018-05-31T12:57:42.922Z,39.61
2018-05-31T12:58:42.888Z,40.88
2018-05-31T13:00:35.837Z,40.64
2018-05-31T13:01:35.856Z,42.19
2018-05-31T13:03:28.812Z,44.13
2018-05-31T13:04:28.821Z,43.73
2018-05-31T13:06:21.750Z,44.89
2018-05-31T13:07:21.785Z,44.98
2018-05-31T13:09:14.740Z,45.06
2018-05-31T13:10:14.752Z,45.65
2018-05-31T13:12:07.859Z,46.04
2018-05-31T13:13:07.877Z,45.06
2018-05-31T13:15:00.833Z,44.98
2018-05-31T13:16:00.853Z,45.67
2018-05-31T13:17:54.005Z,46.06
2018-05-31T13:18:53.867Z,46.75
2018-05-31T13:20:46.737Z,46.84
2018-05-31T13:21:53.896Z,46.23
2018-05-31T13:23:39.723Z,47.53
2018-05-31T13:24:39.814Z,47.43
2018-05-31T13:26:32.701Z,47.85
2018-05-31T13:27:32.750Z,47.45
2018-05-31T13:29:25.724Z,44.71
2018-05-31T13:30:25.664Z,43.63
2018-05-31T13:32:18.794Z,44.59
2018-05-31T13:33:18.840Z,44.89
2018-05-31T13:35:11.747Z,45.18
2018-05-31T13:36:11.753Z,44.87
2018-05-31T13:38:04.706Z,45.65
2018-05-31T13:39:04.820Z,45.26
2018-05-31T13:40:57.683Z,46.55
2018-05-31T13:41:57.686Z,46.26
2018-05-31T13:43:50.832Z,45.18
2018-05-31T13:44:50.819Z,45.37
2018-05-31T13:46:43.742Z,44.89
2018-05-31T13:47:43.772Z,45.37
2018-05-31T13:49:36.775Z,45.67
2018-05-31T13:50:36.756Z,45.69
2018-05-31T13:52:29.707Z,46.37
2018-05-31T13:53:29.720Z,46.28
2018-05-31T13:55:22.675Z,44.81
2018-05-31T13:56:22.721Z,45.10
2018-05-31T13:58:15.634Z,45.10
2018-05-31T13:59:15.643Z,45.30
2018-05-31T14:01:08.578Z,45.30
2018-05-31T14:02:08.611Z,44.71
2018-05-31T14:04:01.612Z,44.62
2018-05-31T14:05:01.614Z,44.42
2018-05-31T14:06:54.526Z,45.01
2018-05-31T14:07:54.543Z,45.10
2018-05-31T14:09:47.492Z,44.91
2018-05-31T14:10:47.502Z,44.42
2018-05-31T14:12:40.436Z,44.52
2018-05-31T14:13:40.506Z,44.81
2018-05-31T14:15:33.422Z,45.30
2018-05-31T14:16:33.433Z,45.20
2018-05-31T14:18:26.411Z,45.59
2018-05-31T14:19:26.402Z,45.30
2018-05-31T14:21:19.355Z,45.13
2018-05-31T14:22:19.364Z,45.10
2018-05-31T14:24:12.318Z,44.83
2018-05-31T14:25:12.332Z,45.62
2018-05-31T14:27:05.263Z,44.83
2018-05-31T14:28:05.294Z,44.93
2018-05-31T14:29:58.276Z,43.46
2018-05-31T14:30:58.279Z,44.64
2018-05-31T14:32:51.207Z,44.54
2018-05-31T14:33:51.240Z,44.73
2018-05-31T14:35:44.350Z,45.05
2018-05-31T14:36:44.363Z,45.44
2018-05-31T14:38:37.323Z,44.85
2018-05-31T14:39:37.336Z,44.95
2018-05-31T14:41:30.459Z,43.02
2018-05-31T14:42:30.420Z,42.31
2018-05-31T14:44:23.375Z,43.38
2018-05-31T14:45:23.384Z,43.51
2018-05-31T14:47:16.550Z,40.94
2018-05-31T14:48:16.590Z,40.06
2018-05-31T14:50:09.542Z,40.66
2018-05-31T14:51:09.555Z,40.47
2018-05-31T14:53:02.490Z,40.68
2018-05-31T14:54:02.521Z,39.31
2018-05-31T14:55:55.481Z,39.70
2018-05-31T14:56:55.493Z,39.01
2018-05-31T14:58:48.450Z,39.51
2018-05-31T14:59:48.463Z,40.68
2018-05-31T15:01:41.419Z,42.05
2018-05-31T15:02:41.447Z,40.37
2018-05-31T15:04:34.417Z,41.66
2018-05-31T15:05:34.416Z,42.45
2018-05-31T15:07:27.360Z,42.62
2018-05-31T15:08:27.390Z,42.33
2018-05-31T15:10:20.361Z,42.62
2018-05-31T15:11:20.359Z,42.82
2018-05-31T15:13:13.324Z,42.11
2018-05-31T15:14:13.325Z,42.33
2018-05-31T15:16:06.437Z,42.02
2018-05-31T15:17:06.454Z,42.09
2018-05-31T15:18:59.406Z,42.68
2018-05-31T15:19:59.426Z,44.73
2018-05-31T15:21:52.356Z,45.42
2018-05-31T15:22:52.382Z,45.64
2018-05-31T15:24:45.364Z,45.73
2018-05-31T15:25:45.394Z,46.03
2018-05-31T15:27:38.301Z,45.64
2018-05-31T15:28:38.332Z,46.23
2018-05-31T15:30:31.301Z,45.52
2018-05-31T15:31:31.312Z,45.30
2018-05-31T15:33:24.277Z,45.10
2018-05-31T15:34:24.297Z,45.47
2018-05-31T15:36:17.250Z,46.72
2018-05-31T15:37:17.262Z,47.28
2018-05-31T15:39:10.371Z,47.67
2018-05-31T15:40:10.384Z,48.36
2018-05-31T15:42:03.332Z,49.19
2018-05-31T15:43:03.346Z,49.58
2018-05-31T15:44:56.303Z,50.43
2018-05-31T15:46:03.437Z,51.41
2018-05-31T15:47:56.384Z,52.58
2018-05-31T15:48:49.277Z,52.95
2018-05-31T15:50:42.233Z,53.53
2018-05-31T15:51:42.301Z,53.05
2018-05-31T15:53:35.170Z,53.05
2018-05-31T15:54:35.205Z,53.63
2018-05-31T15:56:29.168Z,53.41
2018-05-31T15:57:29.175Z,53.99
2018-05-31T15:59:22.128Z,54.77
2018-05-31T16:00:22.138Z,55.75
2018-05-31T16:02:15.067Z,55.65
2018-05-31T16:03:15.101Z,55.65
2018-05-31T16:05:08.274Z,56.52
2018-05-31T16:06:08.293Z,56.89
2018-05-31T16:08:01.230Z,57.37
2018-05-31T16:09:01.252Z,58.22
2018-05-31T16:10:54.392Z,57.64
2018-05-31T16:11:54.398Z,57.32
2018-05-31T16:13:47.857Z,57.42
2018-05-31T16:14:47.867Z,57.78
2018-05-31T16:16:40.820Z,59.01
2018-05-31T16:17:40.833Z,59.79
2018-05-31T16:19:33.776Z,60.93
2018-05-31T16:20:33.788Z,60.83
2018-05-31T16:22:26.718Z,60.61
2018-05-31T16:23:26.747Z,60.71
2018-05-31T16:25:19.705Z,60.61
2018-05-31T16:26:19.709Z,61.00
2018-05-31T16:28:13.628Z,60.15
2018-05-31T16:29:13.660Z,60.74
2018-05-31T16:31:06.611Z,59.57
2018-05-31T16:32:06.619Z,59.41
2018-05-31T16:33:59.546Z,58.85
2018-05-31T16:34:59.632Z,58.65
2018-05-31T16:36:52.557Z,58.75
2018-05-31T16:37:52.562Z,58.85
2018-05-31T16:39:45.513Z,58.17
2018-05-31T16:40:45.693Z,58.65
2018-05-31T16:42:38.448Z,58.85
2018-05-31T16:43:38.475Z,58.65
2018-05-31T16:45:31.423Z,58.75
2018-05-31T16:46:31.433Z,58.36
2018-05-31T16:48:24.754Z,58.85
2018-05-31T16:49:24.712Z,59.05
2018-05-31T16:51:17.658Z,59.23
2018-05-31T16:52:17.666Z,60.11
2018-05-31T16:54:10.596Z,60.89
2018-05-31T16:55:10.626Z,59.82
2018-05-31T16:57:03.571Z,60.11
2018-05-31T16:58:03.585Z,58.95
2018-05-31T16:59:56.534Z,58.36
2018-05-31T17:00:56.540Z,57.87
2018-05-31T17:02:49.481Z,56.61
2018-05-31T17:03:49.504Z,56.64
2018-05-31T17:05:42.456Z,56.93
2018-05-31T17:06:42.459Z,55.76
2018-05-31T17:08:35.389Z,54.89
2018-05-31T17:09:35.423Z,54.40
2018-05-31T17:11:28.371Z,54.72
2018-05-31T17:12:28.381Z,54.82
2018-05-31T17:14:21.324Z,54.03
2018-05-31T17:15:21.338Z,54.03
2018-05-31T17:17:14.289Z,53.87
2018-05-31T17:18:14.294Z,53.19
2018-05-31T17:20:07.249Z,52.50
2018-05-31T17:21:07.251Z,52.12
2018-05-31T17:23:00.179Z,51.65
2018-05-31T17:24:00.207Z,51.75
2018-05-31T17:25:53.159Z,51.85
2018-05-31T17:26:53.166Z,52.34
2018-05-31T17:28:46.094Z,52.50
2018-05-31T17:29:46.133Z,52.31
2018-05-31T17:31:39.070Z,51.92
2018-05-31T17:32:39.080Z,51.82
2018-05-31T17:34:32.007Z,51.53
2018-05-31T17:35:32.037Z,51.63
2018-05-31T17:37:24.999Z,51.43
2018-05-31T17:38:24.998Z,51.73
2018-05-31T17:40:17.946Z,51.73
2018-05-31T17:41:17.953Z,52.70
2018-05-31T17:43:10.890Z,53.06
2018-05-31T17:44:10.914Z,53.09
2018-05-31T17:46:03.856Z,52.99
2018-05-31T17:47:03.864Z,52.89
2018-05-31T17:48:56.795Z,53.48
2018-05-31T17:49:56.826Z,54.03
2018-05-31T17:51:49.769Z,55.50
2018-05-31T17:52:49.782Z,56.25
2018-05-31T17:54:42.714Z,57.49
2018-05-31T17:55:42.735Z,58.53
2018-05-31T17:57:35.723Z,59.69
2018-05-31T17:58:35.696Z,59.59
2018-05-31T18:00:28.638Z,59.67
2018-05-31T18:01:28.659Z,60.18
2018-05-31T18:03:21.612Z,60.67
2018-05-31T18:04:21.614Z,60.44
2018-05-31T18:06:14.560Z,60.25
2018-05-31T18:07:14.580Z,60.93
2018-05-31T18:09:07.489Z,60.54
2018-05-31T18:10:07.525Z,60.93
2018-05-31T18:12:00.498Z,61.32
2018-05-31T18:13:07.596Z,62.00
2018-05-31T18:14:53.401Z,61.29
2018-05-31T18:15:53.427Z,61.77
2018-05-31T18:17:46.379Z,62.55
2018-05-31T18:18:46.385Z,62.84
2018-05-31T18:20:39.334Z,62.45
2018-05-31T18:21:39.336Z,62.45
2018-05-31T18:23:32.261Z,62.55
2018-05-31T18:24:32.296Z,62.65
2018-05-31T18:26:25.278Z,63.23
2018-05-31T18:27:25.266Z,63.81
2018-05-31T18:29:18.176Z,62.65
2018-05-31T18:30:18.207Z,62.65
2018-05-31T18:32:11.188Z,62.62
2018-05-31T18:33:11.157Z,62.62
2018-05-31T18:35:04.094Z,62.71